Time;durP1;ratioP1;P1;durP2;ratioP2;P2;SDS_P1;SDS_P2;PMS_P1;PMS_P2;Temp;Humidity;BMP_temperature;BMP_pressure;BME280_temperature;BME280_humidity;BME280_pressure;Samples;Min_cycle;Max_cycle;Signal;HPM_P1;HPM_P2
2023/06/19 00:03:48;;;;;;;8.82;6.78;;;;;;;;;;10062670;29;20048;-72
2023/06/19 00:08:44;;;;;;;8.82;7.20;;;;;;;;;;10053970;29;21737;-71
2023/06/19 00:13:41;;;;;;;7.38;6.63;;;;;;;;;;10057610;29;20059;-70
2023/06/19 00:18:39;;;;;;;9.65;7.35;;;;;;;;;;10064070;28;20098;-70
2023/06/19 00:23:36;;;;;;;7.95;7.10;;;;;;;;;;10064124;28;20047;-70
2023/06/19 00:28:32;;;;;;;8.48;7.57;;;;;;;;;;10059818;29;20497;-72
2023/06/19 00:33:30;;;;;;;12.40;7.80;;;;;;;;;;10058531;28;20150;-72
2023/06/19 00:38:26;;;;;;;8.02;7.22;;;;;;;;;;10052640;29;20050;-70
2023/06/19 00:43:22;;;;;;;7.95;7.22;;;;;;;;;;10059189;29;21260;-70
2023/06/19 00:48:19;;;;;;;8.75;7.95;;;;;;;;;;10054544;29;20478;-71
2023/06/19 00:53:15;;;;;;;8.63;7.57;;;;;;;;;;10057709;28;20059;-70
2023/06/19 00:58:12;;;;;;;8.50;7.43;;;;;;;;;;10058373;29;20075;-72
2023/06/19 01:08:46;;;;;;;10.73;6.85;;;;;;;;;;10979823;23;20481;-67
2023/06/19 01:13:47;;;;;;;8.65;7.85;;;;;;;;;;10052144;28;20444;-67
2023/06/19 01:18:44;;;;;;;8.75;7.78;;;;;;;;;;10036523;29;20043;-67
2023/06/19 01:23:40;;;;;;;8.00;7.20;;;;;;;;;;10026138;29;20115;-67
2023/06/19 01:28:41;;;;;;;8.07;7.28;;;;;;;;;;10027803;29;20612;-67
2023/06/19 01:33:38;;;;;;;10.55;7.50;;;;;;;;;;10028820;29;20047;-67
2023/06/19 01:38:35;;;;;;;8.55;7.70;;;;;;;;;;10038225;29;20513;-67
2023/06/19 01:43:31;;;;;;;9.30;8.15;;;;;;;;;;10036171;29;20055;-67
2023/06/19 01:48:27;;;;;;;12.65;8.32;;;;;;;;;;10038533;29;20043;-67
2023/06/19 01:53:24;;;;;;;8.57;7.63;;;;;;;;;;10038298;29;20048;-67
2023/06/19 01:58:20;;;;;;;11.60;7.82;;;;;;;;;;10037412;29;20063;-66
2023/06/19 02:03:17;;;;;;;9.55;8.10;;;;;;;;;;10034108;29;20051;-66
2023/06/19 02:08:13;;;;;;;8.27;7.50;;;;;;;;;;10035956;29;20489;-66
2023/06/19 02:13:09;;;;;;;10.98;8.02;;;;;;;;;;10035296;29;20111;-66
2023/06/19 02:18:05;;;;;;;9.60;8.02;;;;;;;;;;10031787;29;20138;-66
2023/06/19 02:23:02;;;;;;;8.70;7.90;;;;;;;;;;10034552;29;20055;-66
2023/06/19 02:27:58;;;;;;;9.35;8.55;;;;;;;;;;10030849;29;20439;-66
2023/06/19 02:32:54;;;;;;;9.13;7.88;;;;;;;;;;10035647;29;20079;-65
2023/06/19 02:37:51;;;;;;;12.50;8.88;;;;;;;;;;10030056;29;20867;-67
2023/06/19 02:42:47;;;;;;;9.27;8.38;;;;;;;;;;10029884;29;20055;-69
2023/06/19 02:47:44;;;;;;;8.77;8.00;;;;;;;;;;10031204;29;20062;-70
2023/06/19 02:52:43;;;;;;;9.40;8.50;;;;;;;;;;10031394;29;20151;-70
2023/06/19 02:57:40;;;;;;;9.10;8.15;;;;;;;;;;10030744;29;20144;-71
2023/06/19 03:02:36;;;;;;;9.30;8.40;;;;;;;;;;10028420;29;20051;-71
2023/06/19 03:07:36;;;;;;;9.52;8.63;;;;;;;;;;10025175;29;20051;-70
2023/06/19 03:12:33;;;;;;;11.80;8.88;;;;;;;;;;10029159;29;20664;-66
2023/06/19 03:17:29;;;;;;;8.85;8.00;;;;;;;;;;10028842;29;20067;-66
2023/06/19 03:22:25;;;;;;;9.90;8.90;;;;;;;;;;10028008;29;20067;-68
2023/06/19 03:27:22;;;;;;;9.50;8.50;;;;;;;;;;10028032;29;20469;-67
2023/06/19 03:32:19;;;;;;;10.35;9.35;;;;;;;;;;10028651;29;20103;-69
2023/06/19 03:37:16;;;;;;;9.93;9.02;;;;;;;;;;10017468;29;20675;-69
2023/06/19 03:42:12;;;;;;;9.57;8.77;;;;;;;;;;10024833;29;20143;-69
2023/06/19 03:47:09;;;;;;;9.38;8.48;;;;;;;;;;10009098;29;20533;-70
2023/06/19 03:52:05;;;;;;;10.13;9.13;;;;;;;;;;10026546;29;20052;-70
2023/06/19 03:57:02;;;;;;;9.70;8.80;;;;;;;;;;10023954;29;20122;-70
2023/06/19 04:01:59;;;;;;;10.35;9.00;;;;;;;;;;10027299;29;20063;-70
2023/06/19 04:06:55;;;;;;;10.20;9.30;;;;;;;;;;10005886;29;20070;-70
2023/06/19 04:11:52;;;;;;;10.60;9.60;;;;;;;;;;10025639;29;20060;-70
2023/06/19 04:16:48;;;;;;;10.07;8.98;;;;;;;;;;10028268;29;20437;-70
2023/06/19 04:21:45;;;;;;;10.48;9.48;;;;;;;;;;10025675;29;20055;-70
2023/06/19 04:26:42;;;;;;;9.52;8.63;;;;;;;;;;10009980;29;20454;-70
2023/06/19 04:31:40;;;;;;;10.70;9.60;;;;;;;;;;10022040;29;20059;-70
2023/06/19 04:36:38;;;;;;;11.20;10.07;;;;;;;;;;10023535;29;20078;-70
2023/06/19 04:41:38;;;;;;;13.77;10.55;;;;;;;;;;10026567;29;20048;-69
2023/06/19 04:46:37;;;;;;;11.88;10.77;;;;;;;;;;10025339;29;20055;-70
2023/06/19 04:51:34;;;;;;;12.95;11.73;;;;;;;;;;10022286;29;20488;-70
2023/06/19 04:56:30;;;;;;;11.30;10.20;;;;;;;;;;10026335;29;20098;-69
2023/06/19 05:01:33;;;;;;;11.98;10.77;;;;;;;;;;10026232;29;20050;-69
2023/06/19 05:06:29;;;;;;;11.98;10.65;;;;;;;;;;10026257;29;20071;-70
2023/06/19 05:11:26;;;;;;;11.73;10.65;;;;;;;;;;10027445;29;20095;-70
2023/06/19 05:16:23;;;;;;;12.27;11.07;;;;;;;;;;10025016;29;20055;-70
2023/06/19 05:21:19;;;;;;;14.75;12.18;;;;;;;;;;10026837;29;20094;-68
2023/06/19 05:26:19;;;;;;;12.18;10.98;;;;;;;;;;10022269;29;20095;-68
2023/06/19 05:31:16;;;;;;;12.15;10.60;;;;;;;;;;10026322;29;20051;-68
2023/06/19 05:36:12;;;;;;;11.73;10.57;;;;;;;;;;10025898;29;20095;-68
2023/06/19 05:41:08;;;;;;;12.15;10.95;;;;;;;;;;10023112;29;20291;-68
2023/06/19 05:46:05;;;;;;;12.40;11.30;;;;;;;;;;10023661;29;20047;-68
2023/06/19 05:51:01;;;;;;;12.48;11.20;;;;;;;;;;10027505;29;20055;-68
2023/06/19 05:55:58;;;;;;;12.80;11.45;;;;;;;;;;10026516;29;20059;-68
2023/06/19 06:00:57;;;;;;;12.82;11.70;;;;;;;;;;10024455;29;20143;-68
2023/06/19 06:05:53;;;;;;;12.95;10.98;;;;;;;;;;10025681;29;20513;-67
2023/06/19 06:10:50;;;;;;;12.90;11.52;;;;;;;;;;10025990;29;20106;-67
2023/06/19 06:15:46;;;;;;;13.45;12.13;;;;;;;;;;10025911;29;20051;-67
2023/06/19 06:20:42;;;;;;;12.40;11.32;;;;;;;;;;10024590;29;20051;-68
2023/06/19 06:25:39;;;;;;;13.07;11.73;;;;;;;;;;10034494;29;20058;-67
2023/06/19 06:30:35;;;;;;;12.32;11.20;;;;;;;;;;10032175;29;20106;-69
2023/06/19 06:35:31;;;;;;;13.43;12.13;;;;;;;;;;10014868;29;20048;-69
2023/06/19 06:40:28;;;;;;;13.30;11.98;;;;;;;;;;10029848;29;20067;-69
2023/06/19 06:45:24;;;;;;;13.23;12.00;;;;;;;;;;10014686;29;20683;-67
2023/06/19 06:50:23;;;;;;;13.90;12.68;;;;;;;;;;10027054;29;20067;-67
2023/06/19 06:55:20;;;;;;;14.43;13.15;;;;;;;;;;10029983;29;20089;-67
2023/06/19 07:00:18;;;;;;;16.02;14.63;;;;;;;;;;10031897;29;20047;-67
2023/06/19 07:05:14;;;;;;;15.65;13.93;;;;;;;;;;10032195;29;20044;-68
2023/06/19 07:10:10;;;;;;;15.57;14.18;;;;;;;;;;10031976;29;20086;-68
2023/06/19 07:15:07;;;;;;;15.73;14.10;;;;;;;;;;10029954;29;20047;-67
2023/06/19 07:20:04;;;;;;;14.18;12.98;;;;;;;;;;10028710;29;20627;-67
2023/06/19 07:25:00;;;;;;;13.93;12.70;;;;;;;;;;10033343;29;20413;-67
2023/06/19 07:29:56;;;;;;;14.30;12.98;;;;;;;;;;10031841;29;20497;-67
2023/06/19 07:34:53;;;;;;;14.77;13.27;;;;;;;;;;10029905;29;20047;-69
2023/06/19 07:39:52;;;;;;;14.35;12.95;;;;;;;;;;10025513;29;20056;-69
2023/06/19 07:44:49;;;;;;;14.32;12.90;;;;;;;;;;10028494;29;20056;-69
2023/06/19 07:49:45;;;;;;;14.38;12.88;;;;;;;;;;10029728;29;20071;-68
2023/06/19 07:54:51;;;;;;;14.10;12.80;;;;;;;;;;10027883;29;20047;-68
2023/06/19 07:59:48;;;;;;;14.25;12.13;;;;;;;;;;10030264;29;20106;-68
2023/06/19 08:04:45;;;;;;;15.13;13.02;;;;;;;;;;10026859;29;20048;-67
2023/06/19 08:09:41;;;;;;;13.35;12.05;;;;;;;;;;10029535;29;20537;-68
2023/06/19 08:14:38;;;;;;;13.30;12.02;;;;;;;;;;10022540;29;20082;-68
2023/06/19 08:19:34;;;;;;;13.27;11.98;;;;;;;;;;10027377;29;20532;-68
2023/06/19 08:24:31;;;;;;;15.05;13.55;;;;;;;;;;10029257;29;20051;-67
2023/06/19 08:29:27;;;;;;;13.68;12.50;;;;;;;;;;10011235;29;20048;-68
2023/06/19 08:34:23;;;;;;;13.23;12.13;;;;;;;;;;10026875;29;20047;-67
2023/06/19 08:39:22;;;;;;;14.95;13.10;;;;;;;;;;10025669;29;20052;-72
2023/06/19 08:44:18;;;;;;;12.77;11.68;;;;;;;;;;10024905;29;20095;-69
2023/06/19 08:49:15;;;;;;;13.43;12.02;;;;;;;;;;10027292;29;20790;-69
2023/06/19 08:54:13;;;;;;;12.95;11.65;;;;;;;;;;10028099;29;20438;-69
2023/06/19 08:59:10;;;;;;;13.57;12.27;;;;;;;;;;10026738;29;20536;-69
2023/06/19 09:04:10;;;;;;;13.13;11.93;;;;;;;;;;10024323;29;20047;-70
2023/06/19 09:09:12;;;;;;;12.55;11.35;;;;;;;;;;10025743;29;20573;-69
2023/06/19 09:14:11;;;;;;;13.63;12.35;;;;;;;;;;10026244;29;20086;-69
2023/06/19 09:19:07;;;;;;;13.45;12.25;;;;;;;;;;10028259;29;20071;-69
2023/06/19 09:24:05;;;;;;;13.65;12.35;;;;;;;;;;10024882;29;20044;-69
2023/06/19 09:29:15;;;;;;;14.00;11.70;;;;;;;;;;10024701;29;20042;-69
2023/06/19 09:34:16;;;;;;;14.02;12.73;;;;;;;;;;10025182;29;20051;-70
2023/06/19 09:39:13;;;;;;;13.65;12.25;;;;;;;;;;10023091;29;20114;-70
2023/06/19 09:44:12;;;;;;;13.32;12.23;;;;;;;;;;10026364;29;20106;-70
2023/06/19 09:49:09;;;;;;;13.93;12.68;;;;;;;;;;10030337;29;20062;-70
2023/06/19 09:54:07;;;;;;;13.07;11.98;;;;;;;;;;10025403;29;20072;-67
2023/06/19 09:59:04;;;;;;;13.63;12.15;;;;;;;;;;10027775;29;20075;-70
2023/06/19 10:04:01;;;;;;;13.63;12.32;;;;;;;;;;10011533;29;20043;-70
2023/06/19 10:09:06;;;;;;;13.05;11.85;;;;;;;;;;10031282;29;20091;-68
2023/06/19 10:14:07;;;;;;;13.48;11.98;;;;;;;;;;10032477;29;20051;-67
2023/06/19 10:19:11;;;;;;;14.40;13.00;;;;;;;;;;10033643;29;20047;-69
2023/06/19 10:24:13;;;;;;;13.93;12.70;;;;;;;;;;10026897;29;20047;-70
2023/06/19 10:29:16;;;;;;;13.60;11.85;;;;;;;;;;10031883;29;20501;-68
2023/06/19 10:34:13;;;;;;;13.65;12.35;;;;;;;;;;10029969;29;20086;-70
2023/06/19 10:39:10;;;;;;;13.50;12.30;;;;;;;;;;10032492;29;20051;-67
2023/06/19 10:44:10;;;;;;;13.27;12.02;;;;;;;;;;10036417;29;20048;-70
2023/06/19 10:49:09;;;;;;;14.13;12.67;;;;;;;;;;10018551;29;20082;-67
2023/06/19 10:54:06;;;;;;;13.80;12.65;;;;;;;;;;10035175;29;20062;-70
2023/06/19 10:59:08;;;;;;;13.60;12.40;;;;;;;;;;10035918;29;20059;-68
2023/06/19 11:04:06;;;;;;;14.80;13.50;;;;;;;;;;10029635;29;20051;-70
2023/06/19 11:09:04;;;;;;;16.05;12.45;;;;;;;;;;10010067;29;20127;-68
2023/06/19 11:14:03;;;;;;;14.07;12.55;;;;;;;;;;10033153;29;20070;-67
2023/06/19 11:19:01;;;;;;;14.05;12.95;;;;;;;;;;10018374;29;20065;-67
2023/06/19 11:23:57;;;;;;;13.23;12.13;;;;;;;;;;10028617;29;20052;-68
2023/06/19 11:28:54;;;;;;;16.13;13.20;;;;;;;;;;10031697;29;20474;-68
2023/06/19 11:33:59;;;;;;;14.98;13.52;;;;;;;;;;10027474;29;20087;-67
2023/06/19 11:38:56;;;;;;;13.45;12.18;;;;;;;;;;10031839;29;20056;-69
2023/06/19 11:43:58;;;;;;;13.10;11.98;;;;;;;;;;10009777;29;20510;-69
2023/06/19 11:48:55;;;;;;;13.35;12.25;;;;;;;;;;10035145;29;20036;-69
2023/06/19 11:54:05;;;;;;;13.90;12.80;;;;;;;;;;10034065;29;20079;-69
2023/06/19 11:59:03;;;;;;;13.20;12.13;;;;;;;;;;10033865;29;20052;-69
2023/06/19 12:03:59;;;;;;;12.68;11.32;;;;;;;;;;10031238;29;20641;-70
2023/06/19 12:08:56;;;;;;;11.77;10.77;;;;;;;;;;10031841;29;20052;-70
2023/06/19 12:13:57;;;;;;;10.75;9.93;;;;;;;;;;10021372;29;20103;-70
2023/06/19 12:18:53;;;;;;;12.02;10.95;;;;;;;;;;10031611;29;20130;-68
2023/06/19 12:23:50;;;;;;;11.32;10.32;;;;;;;;;;10028963;29;20051;-71
2023/06/19 12:28:46;;;;;;;12.00;11.00;;;;;;;;;;10032508;29;20055;-71
2023/06/19 12:33:43;;;;;;;12.35;10.18;;;;;;;;;;10010949;29;20051;-71
2023/06/19 12:38:40;;;;;;;11.20;10.25;;;;;;;;;;10029371;29;20091;-70
2023/06/19 12:43:36;;;;;;;10.80;9.82;;;;;;;;;;10031212;29;20502;-68
2023/06/19 12:48:32;;;;;;;10.65;9.63;;;;;;;;;;10024001;29;20128;-71
2023/06/19 12:53:29;;;;;;;11.70;10.68;;;;;;;;;;10030893;29;20552;-71
2023/06/19 12:58:26;;;;;;;10.40;9.40;;;;;;;;;;10026855;29;20090;-70
2023/06/19 13:03:22;;;;;;;11.10;10.07;;;;;;;;;;10027283;29;20126;-70
2023/06/19 13:08:19;;;;;;;11.00;10.07;;;;;;;;;;10027966;29;20074;-70
2023/06/19 13:13:15;;;;;;;10.32;9.40;;;;;;;;;;10026538;29;20087;-71
2023/06/19 13:18:11;;;;;;;10.68;9.70;;;;;;;;;;10027987;29;20043;-68
2023/06/19 13:23:08;;;;;;;11.18;10.23;;;;;;;;;;10031961;29;20044;-70
2023/06/19 13:28:04;;;;;;;10.30;9.40;;;;;;;;;;10025298;29;20066;-70
2023/06/19 13:33:01;;;;;;;9.80;8.82;;;;;;;;;;10037519;29;20549;-70
2023/06/19 13:38:00;;;;;;;10.27;9.23;;;;;;;;;;10038659;29;20502;-70
2023/06/19 13:42:57;;;;;;;9.90;9.00;;;;;;;;;;10038675;29;20675;-70
2023/06/19 13:47:53;;;;;;;10.35;9.32;;;;;;;;;;10033976;29;20055;-70
2023/06/19 13:52:49;;;;;;;10.63;9.52;;;;;;;;;;10021913;29;20142;-70
2023/06/19 13:57:46;;;;;;;9.70;8.90;;;;;;;;;;10039468;29;20056;-70
2023/06/19 14:02:42;;;;;;;10.30;9.30;;;;;;;;;;10037207;29;20043;-70
2023/06/19 14:07:40;;;;;;;9.77;8.88;;;;;;;;;;10037755;29;20040;-70
2023/06/19 14:12:36;;;;;;;10.68;8.98;;;;;;;;;;10032161;29;20063;-71
2023/06/19 14:17:32;;;;;;;10.07;9.18;;;;;;;;;;10033572;29;20078;-70
2023/06/19 14:22:29;;;;;;;9.55;8.75;;;;;;;;;;10038089;29;20146;-70
2023/06/19 14:27:26;;;;;;;9.88;9.07;;;;;;;;;;10037216;29;20047;-70
2023/06/19 14:32:23;;;;;;;9.85;8.85;;;;;;;;;;10037619;29;20048;-71
2023/06/19 14:37:20;;;;;;;9.93;8.63;;;;;;;;;;10041000;29;20051;-70
2023/06/19 14:42:17;;;;;;;10.35;9.07;;;;;;;;;;10033739;29;20591;-70
2023/06/19 14:47:13;;;;;;;9.80;8.90;;;;;;;;;;10036264;29;20931;-70
2023/06/19 14:52:09;;;;;;;9.55;8.68;;;;;;;;;;10034185;29;20074;-70
2023/06/19 14:57:06;;;;;;;10.32;9.43;;;;;;;;;;10011652;29;20048;-70
2023/06/19 15:02:02;;;;;;;9.93;9.02;;;;;;;;;;10036711;29;20494;-70
2023/06/19 15:06:59;;;;;;;9.95;9.15;;;;;;;;;;10018766;29;20046;-70
2023/06/19 15:11:56;;;;;;;10.95;9.25;;;;;;;;;;10029716;29;20626;-70
2023/06/19 15:16:52;;;;;;;10.05;9.10;;;;;;;;;;10033115;29;20150;-70
2023/06/19 15:21:48;;;;;;;10.10;9.20;;;;;;;;;;10011009;29;20481;-70
2023/06/19 15:26:45;;;;;;;10.60;9.60;;;;;;;;;;10029212;29;20118;-69
2023/06/19 15:31:41;;;;;;;9.80;8.90;;;;;;;;;;10033467;29;20529;-70
2023/06/19 15:36:37;;;;;;;10.98;10.07;;;;;;;;;;10031454;29;20044;-70
2023/06/19 15:41:34;;;;;;;10.55;9.60;;;;;;;;;;10034821;29;20052;-70
2023/06/19 15:46:30;;;;;;;10.05;9.15;;;;;;;;;;10033744;29;20739;-70
2023/06/19 15:51:27;;;;;;;10.82;9.82;;;;;;;;;;10028752;29;20043;-70
2023/06/19 15:56:23;;;;;;;12.65;10.02;;;;;;;;;;10032925;29;20067;-70
2023/06/19 16:01:19;;;;;;;9.57;8.77;;;;;;;;;;10034172;29;20070;-70
2023/06/19 16:06:16;;;;;;;10.20;9.35;;;;;;;;;;10032661;29;20047;-70
2023/06/19 16:11:12;;;;;;;11.20;10.30;;;;;;;;;;10011870;29;20059;-70
2023/06/19 16:16:08;;;;;;;10.23;9.32;;;;;;;;;;10029210;29;20043;-70
2023/06/19 16:21:05;;;;;;;10.93;9.98;;;;;;;;;;10022809;29;20054;-69
2023/06/19 16:26:02;;;;;;;10.25;9.25;;;;;;;;;;10030228;29;20062;-69
2023/06/19 16:30:59;;;;;;;10.05;9.15;;;;;;;;;;10033116;29;20044;-70
2023/06/19 16:35:55;;;;;;;9.68;8.68;;;;;;;;;;10033903;29;20048;-70
2023/06/19 16:40:51;;;;;;;10.77;9.77;;;;;;;;;;10029724;29;20771;-70
2023/06/19 16:45:48;;;;;;;9.32;8.43;;;;;;;;;;10032756;29;20102;-70
2023/06/19 16:50:44;;;;;;;9.15;8.35;;;;;;;;;;10030621;29;20063;-70
2023/06/19 16:55:40;;;;;;;9.23;8.45;;;;;;;;;;10013566;29;20040;-70
2023/06/19 17:00:37;;;;;;;9.40;8.60;;;;;;;;;;10031606;29;20125;-70
2023/06/19 17:05:33;;;;;;;9.23;8.27;;;;;;;;;;10026276;29;20075;-70
2023/06/19 17:10:29;;;;;;;8.48;7.78;;;;;;;;;;10033738;29;20068;-70
2023/06/19 17:15:30;;;;;;;8.77;7.97;;;;;;;;;;10026862;29;20071;-70
2023/06/19 17:20:26;;;;;;;9.63;8.30;;;;;;;;;;10028961;29;20079;-71
2023/06/19 17:25:23;;;;;;;9.70;8.88;;;;;;;;;;10030129;29;20506;-70
2023/06/19 17:30:20;;;;;;;9.90;9.00;;;;;;;;;;10012036;29;20103;-70
2023/06/19 17:35:16;;;;;;;8.93;8.13;;;;;;;;;;10032327;29;20050;-70
2023/06/19 17:40:13;;;;;;;9.77;8.77;;;;;;;;;;10030754;29;20040;-70
2023/06/19 17:45:10;;;;;;;8.50;7.85;;;;;;;;;;10031042;29;20043;-70
2023/06/19 17:50:11;;;;;;;8.48;7.78;;;;;;;;;;10031018;29;20047;-70
2023/06/19 17:55:08;;;;;;;9.38;8.43;;;;;;;;;;10030426;29;20044;-71
2023/06/19 18:00:05;;;;;;;9.32;8.52;;;;;;;;;;10029556;29;20100;-70
2023/06/19 18:05:02;;;;;;;10.15;9.25;;;;;;;;;;10030793;29;20091;-70
2023/06/19 18:09:58;;;;;;;11.80;10.20;;;;;;;;;;10024193;29;20128;-69
2023/06/19 18:14:55;;;;;;;18.60;15.10;;;;;;;;;;10027786;29;20052;-70
2023/06/19 18:19:51;;;;;;;17.60;15.75;;;;;;;;;;10037023;29;20075;-70
2023/06/19 18:24:48;;;;;;;14.05;11.43;;;;;;;;;;10032496;29;20062;-70
2023/06/19 18:29:44;;;;;;;10.90;9.80;;;;;;;;;;10028552;29;20059;-70
2023/06/19 18:34:41;;;;;;;13.43;9.38;;;;;;;;;;10027825;29;20044;-70
2023/06/19 18:39:37;;;;;;;10.18;9.25;;;;;;;;;;10033042;29;20058;-69
2023/06/19 18:44:34;;;;;;;10.07;9.18;;;;;;;;;;10037791;29;20107;-69
2023/06/19 18:49:30;;;;;;;10.68;9.68;;;;;;;;;;10035979;29;20039;-69
2023/06/19 18:54:27;;;;;;;11.07;9.98;;;;;;;;;;10034237;29;20048;-70
2023/06/19 18:59:24;;;;;;;10.05;9.05;;;;;;;;;;10029806;29;20059;-70
2023/06/19 19:04:20;;;;;;;12.82;9.65;;;;;;;;;;10033529;29;20071;-70
2023/06/19 19:09:16;;;;;;;10.95;9.38;;;;;;;;;;10034817;29;20639;-70
2023/06/19 19:14:13;;;;;;;12.13;9.57;;;;;;;;;;10034944;29;20119;-70
2023/06/19 19:19:09;;;;;;;10.05;9.05;;;;;;;;;;10035300;29;20047;-70
2023/06/19 19:24:05;;;;;;;12.18;9.93;;;;;;;;;;10017489;29;20039;-70
2023/06/19 19:29:02;;;;;;;10.07;9.07;;;;;;;;;;10030932;29;20445;-70
2023/06/19 19:33:58;;;;;;;10.82;9.15;;;;;;;;;;10025880;29;20039;-70
2023/06/19 19:38:55;;;;;;;8.95;8.13;;;;;;;;;;10034330;29;20051;-70
2023/06/19 19:43:51;;;;;;;9.93;8.93;;;;;;;;;;10030002;29;20084;-70
2023/06/19 19:48:48;;;;;;;9.80;8.80;;;;;;;;;;10035145;29;20051;-70
2023/06/19 19:53:44;;;;;;;10.38;9.45;;;;;;;;;;10034552;29;20056;-70
2023/06/19 19:58:40;;;;;;;9.88;8.85;;;;;;;;;;10029731;29;20051;-69
2023/06/19 20:03:36;;;;;;;10.00;9.00;;;;;;;;;;10023928;29;20501;-69
2023/06/19 20:08:33;;;;;;;10.55;9.40;;;;;;;;;;10025831;29;20048;-66
2023/06/19 20:13:31;;;;;;;10.82;9.10;;;;;;;;;;10026584;29;20055;-68
2023/06/19 20:18:28;;;;;;;12.57;9.80;;;;;;;;;;10024781;29;20059;-68
2023/06/19 20:23:24;;;;;;;11.82;9.45;;;;;;;;;;10019782;29;20044;-68
2023/06/19 20:28:20;;;;;;;10.55;8.80;;;;;;;;;;10014931;29;20826;-68
2023/06/19 20:33:17;;;;;;;10.60;9.27;;;;;;;;;;10027993;29;20050;-68
2023/06/19 20:38:13;;;;;;;14.55;10.52;;;;;;;;;;10031226;29;20122;-68
2023/06/19 20:43:10;;;;;;;14.50;11.23;;;;;;;;;;10032793;29;20227;-68
2023/06/19 20:48:06;;;;;;;12.27;10.50;;;;;;;;;;10025200;29;20051;-69
2023/06/19 20:53:03;;;;;;;12.32;10.85;;;;;;;;;;10031238;29;20211;-69
2023/06/19 20:58:04;;;;;;;12.73;11.30;;;;;;;;;;10027293;29;20051;-67
2023/06/19 21:03:03;;;;;;;13.73;10.07;;;;;;;;;;10031020;29;20521;-67
2023/06/19 21:07:59;;;;;;;11.38;10.05;;;;;;;;;;10027930;29;20048;-68
2023/06/19 21:12:56;;;;;;;13.45;10.77;;;;;;;;;;10028659;29;20119;-69
2023/06/19 21:18:05;;;;;;;11.63;10.52;;;;;;;;;;10027460;29;20054;-68
2023/06/19 21:23:03;;;;;;;11.25;10.05;;;;;;;;;;10031853;29;20064;-68
2023/06/19 21:27:59;;;;;;;12.57;10.40;;;;;;;;;;10029201;29;20071;-70
2023/06/19 21:32:56;;;;;;;13.65;9.80;;;;;;;;;;10032379;29;20063;-69
2023/06/19 21:37:52;;;;;;;12.95;10.48;;;;;;;;;;10025745;29;20160;-68
2023/06/19 21:42:48;;;;;;;11.80;10.60;;;;;;;;;;10031860;29;20102;-68
2023/06/19 21:47:45;;;;;;;13.02;11.05;;;;;;;;;;10024320;29;20558;-68
2023/06/19 21:52:45;;;;;;;13.10;11.73;;;;;;;;;;10027142;29;20146;-70
2023/06/19 21:57:42;;;;;;;13.63;10.77;;;;;;;;;;10035511;29;20079;-69
2023/06/19 22:02:42;;;;;;;10.90;9.80;;;;;;;;;;10036456;29;20043;-69
2023/06/19 22:07:38;;;;;;;11.90;10.27;;;;;;;;;;10038272;29;20051;-69
2023/06/19 22:12:35;;;;;;;11.32;9.98;;;;;;;;;;10032311;29;20048;-69
2023/06/19 22:17:31;;;;;;;11.90;10.10;;;;;;;;;;10038106;29;20051;-70
2023/06/19 22:22:28;;;;;;;11.63;9.45;;;;;;;;;;10020614;29;20055;-68
2023/06/19 22:27:24;;;;;;;11.30;9.63;;;;;;;;;;10037495;29;20072;-68
2023/06/19 22:32:21;;;;;;;11.20;9.55;;;;;;;;;;10038201;29;20052;-67
2023/06/19 22:37:18;;;;;;;12.07;10.38;;;;;;;;;;10034521;29;20059;-66
2023/06/19 22:42:14;;;;;;;12.10;10.07;;;;;;;;;;10037683;29;20077;-66
2023/06/19 22:47:10;;;;;;;10.70;9.63;;;;;;;;;;10034133;29;20043;-66
2023/06/19 22:52:09;;;;;;;11.05;9.02;;;;;;;;;;10037192;29;20056;-66
2023/06/19 22:57:05;;;;;;;12.73;10.45;;;;;;;;;;10036244;29;20095;-66
2023/06/19 23:02:01;;;;;;;11.98;9.90;;;;;;;;;;10033747;29;20087;-67
2023/06/19 23:07:01;;;;;;;12.23;10.50;;;;;;;;;;10026981;29;20521;-67
2023/06/19 23:11:57;;;;;;;11.02;9.82;;;;;;;;;;10037606;29;20459;-68
2023/06/19 23:16:54;;;;;;;13.15;10.40;;;;;;;;;;10035115;29;20502;-67
2023/06/19 23:21:51;;;;;;;11.25;10.15;;;;;;;;;;10035481;29;20103;-68
2023/06/19 23:26:48;;;;;;;12.20;10.93;;;;;;;;;;10030395;29;20048;-67
2023/06/19 23:31:45;;;;;;;11.02;10.00;;;;;;;;;;10037026;29;20143;-68
2023/06/19 23:36:41;;;;;;;11.75;10.45;;;;;;;;;;10035104;29;20055;-68
2023/06/19 23:41:37;;;;;;;12.80;11.32;;;;;;;;;;10035773;29;20110;-69
2023/06/19 23:46:34;;;;;;;13.02;11.55;;;;;;;;;;10035614;29;20048;-69
2023/06/19 23:51:30;;;;;;;13.25;11.85;;;;;;;;;;10034741;29;20046;-70
2023/06/19 23:56:26;;;;;;;14.27;12.77;;;;;;;;;;10031329;29;20090;-67
